createdAt,value
2022-09-11T00:01:12.461Z,100209.95
2022-09-11T00:04:17.230Z,100200.11
2022-09-11T00:07:21.884Z,100194.96
2022-09-11T00:10:27.692Z,100200.75
2022-09-11T00:13:34.949Z,100193.58
2022-09-11T00:16:49.799Z,100187.83
2022-09-11T00:19:55.423Z,100182.05
2022-09-11T00:23:05.170Z,100179.52
2022-09-11T00:26:13.499Z,100171.42
2022-09-11T00:29:19.368Z,100170.88
2022-09-11T00:32:24.871Z,100165.44
2022-09-11T00:35:30.207Z,100166.34
2022-09-11T00:38:35.812Z,100164.20
2022-09-11T00:41:52.542Z,100146.59
2022-09-11T00:45:03.929Z,100147.44
2022-09-11T00:48:12.374Z,100166.88
2022-09-11T00:51:17.640Z,100165.34
2022-09-11T00:54:24.080Z,100165.98
2022-09-11T00:57:29.001Z,100168.11
2022-09-11T01:00:34.419Z,100169.20
2022-09-11T01:03:40.071Z,100174.27
2022-09-11T01:06:44.824Z,100161.95
2022-09-11T01:09:50.560Z,100161.86
2022-09-11T01:13:22.391Z,100164.28
2022-09-11T01:17:00.521Z,100168.86
2022-09-11T01:20:40.755Z,100161.64
2022-09-11T01:24:15.088Z,100156.77
2022-09-11T01:27:47.298Z,100142.02
2022-09-11T01:30:49.565Z,100147.23
2022-09-11T01:34:01.931Z,100134.11
2022-09-11T01:37:14.907Z,100130.73
2022-09-11T01:40:31.685Z,100122.09
2022-09-11T01:43:43.272Z,100120.52
2022-09-11T01:46:56.542Z,100113.66
2022-09-11T01:50:09.689Z,100112.22
2022-09-11T01:53:18.583Z,100112.03
2022-09-11T01:56:29.180Z,100103.58
2022-09-11T01:59:38.591Z,100096.53
2022-09-11T02:02:57.118Z,100079.91
2022-09-11T02:06:17.863Z,100079.38
2022-09-11T02:09:29.257Z,100082.59
2022-09-11T02:12:34.531Z,100091.11
2022-09-11T02:15:43.886Z,100084.01
2022-09-11T02:19:16.026Z,100077.03
2022-09-11T02:22:21.968Z,100090.98
2022-09-11T02:25:26.865Z,100084.92
2022-09-11T02:28:35.778Z,100097.73
2022-09-11T02:31:41.663Z,100096.52
2022-09-11T02:34:49.356Z,100084.75
2022-09-11T02:38:26.093Z,100087.92
2022-09-11T02:41:35.823Z,100075.14
2022-09-11T02:45:07.755Z,100067.19
2022-09-11T02:48:36.086Z,100069.59
2022-09-11T02:51:47.043Z,100061.30
2022-09-11T02:55:02.798Z,100052.43
2022-09-11T02:58:00.516Z,100050.98
2022-09-11T03:01:07.389Z,100044.23
2022-09-11T03:04:12.576Z,100038.09
2022-09-11T03:07:18.698Z,100041.63
2022-09-11T03:10:25.445Z,100038.88
2022-09-11T03:13:31.542Z,100049.25
2022-09-11T03:16:37.098Z,100046.86
2022-09-11T03:19:43.007Z,100046.79
2022-09-11T03:22:48.522Z,100057.89
2022-09-11T03:25:54.449Z,100060.08
2022-09-11T03:29:00.691Z,100052.39
2022-09-11T03:32:06.789Z,100049.78
2022-09-11T03:35:12.679Z,100044.59
2022-09-11T03:38:18.579Z,100043.03
2022-09-11T03:41:25.812Z,100032.83
2022-09-11T03:44:31.366Z,100032.69
2022-09-11T03:47:37.244Z,100023.69
2022-09-11T03:50:43.515Z,100024.39
2022-09-11T03:53:49.510Z,100018.12
2022-09-11T03:56:55.609Z,100015.47
2022-09-11T04:00:03.784Z,100003.48
2022-09-11T04:03:23.707Z,100006.47
2022-09-11T04:06:29.554Z,99993.09
2022-09-11T04:09:35.081Z,100003.88
2022-09-11T04:12:41.917Z,99993.12
2022-09-11T04:15:49.540Z,99989.58
2022-09-11T04:18:56.032Z,100008.61
2022-09-11T04:22:02.947Z,100003.41
2022-09-11T04:25:10.523Z,100004.31
2022-09-11T04:28:17.464Z,100001.41
2022-09-11T04:31:23.282Z,100000.10
2022-09-11T04:34:29.938Z,100000.16
2022-09-11T04:37:35.885Z,100001.37
2022-09-11T04:40:41.786Z,99996.73
2022-09-11T04:43:46.828Z,99992.01
2022-09-11T04:46:52.194Z,100012.09
2022-09-11T04:49:59.552Z,100013.80
2022-09-11T04:53:05.443Z,100014.54
2022-09-11T04:56:23.214Z,100016.25
2022-09-11T04:59:32.599Z,100035.07
2022-09-11T05:02:39.607Z,100028.08
2022-09-11T05:05:45.261Z,100017.55
2022-09-11T05:08:51.774Z,100017.41
2022-09-11T05:11:58.442Z,100012.63
2022-09-11T05:15:04.990Z,100019.16
2022-09-11T05:18:11.584Z,100015.88
2022-09-11T05:21:19.904Z,100012.03
2022-09-11T05:24:27.473Z,100010.89
2022-09-11T05:27:33.073Z,99996.88
2022-09-11T05:30:38.915Z,99989.77
2022-09-11T05:33:45.695Z,99989.07
2022-09-11T05:36:52.512Z,99982.06
2022-09-11T05:43:15.491Z,99988.98
2022-09-11T05:46:23.037Z,99985.77
2022-09-11T05:49:30.820Z,99976.27
2022-09-11T05:52:37.176Z,99971.58
2022-09-11T05:55:43.219Z,99967.41
2022-09-11T05:58:49.172Z,99970.02
2022-09-11T06:01:57.171Z,99965.20
2022-09-11T06:05:04.273Z,99955.55
2022-09-11T06:08:11.284Z,99945.03
2022-09-11T06:11:17.428Z,99937.80
2022-09-11T06:14:22.834Z,99931.03
2022-09-11T06:17:28.657Z,99938.04
2022-09-11T06:20:34.098Z,99934.09
2022-09-11T06:23:42.049Z,99923.41
2022-09-11T06:26:48.653Z,99916.17
2022-09-11T06:29:55.161Z,99924.23
2022-09-11T06:33:03.967Z,99923.53
2022-09-11T06:36:17.453Z,99920.13
2022-09-11T06:39:24.182Z,99924.66
2022-09-11T06:42:31.233Z,99919.89
2022-09-11T06:45:39.822Z,99928.08
2022-09-11T06:48:46.595Z,99928.84
2022-09-11T06:51:53.881Z,99936.22
2022-09-11T06:55:01.016Z,99923.51
2022-09-11T06:58:02.412Z,99924.95
2022-09-11T07:01:08.721Z,99917.97
2022-09-11T07:04:14.464Z,99921.71
2022-09-11T07:07:20.934Z,99926.16
2022-09-11T07:10:25.802Z,99928.77
2022-09-11T07:13:37.309Z,99916.28
2022-09-11T07:16:42.069Z,99916.17
2022-09-11T07:19:47.930Z,99917.56
2022-09-11T07:22:54.035Z,99925.73
2022-09-11T07:26:01.787Z,99920.02
2022-09-11T07:29:07.752Z,99918.88
2022-09-11T07:32:14.116Z,99918.29
2022-09-11T07:35:24.547Z,99916.77
2022-09-11T07:38:31.432Z,99915.80
2022-09-11T07:41:38.960Z,99920.95
2022-09-11T07:44:46.432Z,99934.23
2022-09-11T07:47:54.612Z,99940.33
2022-09-11T07:51:15.158Z,99934.05
2022-09-11T07:54:21.176Z,99927.84
2022-09-11T07:57:28.867Z,99931.09
2022-09-11T08:00:37.276Z,99915.00
2022-09-11T08:03:44.467Z,99918.42
2022-09-11T08:06:45.168Z,99916.09
2022-09-11T08:09:41.897Z,99917.77
2022-09-11T08:12:48.717Z,99918.24
2022-09-11T08:16:01.827Z,99919.19
2022-09-11T08:19:11.064Z,99918.56
2022-09-11T08:22:19.843Z,99914.06
2022-09-11T08:25:27.445Z,99908.77
2022-09-11T08:28:43.612Z,99899.75
2022-09-11T08:31:50.441Z,99887.88
2022-09-11T08:34:57.418Z,99878.45
2022-09-11T08:38:02.448Z,99870.94
2022-09-11T08:41:08.476Z,99859.61
2022-09-11T08:44:25.920Z,99857.26
2022-09-11T08:47:38.350Z,99859.94
2022-09-11T08:50:50.435Z,99860.88
2022-09-11T08:53:56.370Z,99864.87
2022-09-11T08:57:03.891Z,99860.03
2022-09-11T09:00:36.252Z,99854.06
2022-09-11T09:04:05.340Z,99850.13
2022-09-11T09:07:38.730Z,99856.74
2022-09-11T09:11:02.376Z,99836.35
2022-09-11T09:14:43.939Z,99833.37
2022-09-11T09:17:54.161Z,99846.89
2022-09-11T09:21:04.694Z,99835.15
2022-09-11T09:24:08.280Z,99827.44
2022-09-11T09:27:13.859Z,99810.06
2022-09-11T09:30:23.079Z,99795.19
2022-09-11T09:33:48.996Z,99785.31
2022-09-11T09:37:14.793Z,99796.65
2022-09-11T09:40:24.221Z,99787.91
2022-09-11T09:43:38.847Z,99810.33
2022-09-11T09:46:57.581Z,99786.67
2022-09-11T09:50:02.966Z,99774.31
2022-09-11T09:53:10.590Z,99769.41
2022-09-11T09:56:15.636Z,99769.89
2022-09-11T09:59:29.977Z,99759.67
2022-09-11T10:03:04.627Z,99761.92
2022-09-11T10:06:10.375Z,99763.77
2022-09-11T10:09:16.080Z,99764.59
2022-09-11T10:12:21.995Z,99761.72
2022-09-11T10:15:34.359Z,99765.82
2022-09-11T10:18:53.086Z,99758.19
2022-09-11T10:21:51.529Z,99741.07
2022-09-11T10:24:40.053Z,99738.25
2022-09-11T10:27:31.724Z,99740.44
2022-09-11T10:30:39.365Z,99747.89
2022-09-11T10:33:38.833Z,99748.73
2022-09-11T10:36:38.444Z,99746.98
2022-09-11T10:39:46.791Z,99734.22
2022-09-11T10:42:53.077Z,99740.58
2022-09-11T10:46:18.014Z,99729.53
2022-09-11T10:49:33.577Z,99721.31
2022-09-11T10:52:39.865Z,99710.17
2022-09-11T10:55:51.391Z,99700.27
2022-09-11T10:58:56.880Z,99689.01
2022-09-11T11:02:02.759Z,99687.59
2022-09-11T11:05:10.423Z,99707.40
2022-09-11T11:08:57.877Z,99711.08
2022-09-11T11:12:35.961Z,99725.69
2022-09-11T11:15:58.275Z,99739.68
2022-09-11T11:19:23.750Z,99732.13
2022-09-11T11:22:37.371Z,99715.38
2022-09-11T11:26:03.400Z,99712.42
2022-09-11T11:29:35.246Z,99718.85
2022-09-11T11:32:54.591Z,99712.74
2022-09-11T11:36:11.155Z,99716.50
2022-09-11T11:39:47.216Z,99708.48
2022-09-11T11:43:08.928Z,99710.45
2022-09-11T11:46:32.773Z,99713.83
2022-09-11T11:49:50.032Z,99702.69
2022-09-11T11:53:31.162Z,99706.86
2022-09-11T11:57:03.036Z,99699.61
2022-09-11T12:00:16.925Z,99689.02
2022-09-11T12:03:43.905Z,99695.20
2022-09-11T12:06:49.712Z,99701.84
2022-09-11T12:10:00.649Z,99685.98
2022-09-11T12:13:03.086Z,99682.09
2022-09-11T12:16:41.425Z,99678.44
2022-09-11T12:19:46.046Z,99676.20
2022-09-11T12:22:59.147Z,99675.66
2022-09-11T12:26:05.762Z,99666.73
2022-09-11T12:29:31.480Z,99666.15
2022-09-11T12:32:41.840Z,99666.43
2022-09-11T12:36:00.269Z,99656.95
2022-09-11T12:39:12.038Z,99645.48
2022-09-11T12:42:41.047Z,99640.14
2022-09-11T12:45:51.084Z,99639.33
2022-09-11T12:49:20.439Z,99643.47
2022-09-11T12:52:13.909Z,99639.78
2022-09-11T12:55:24.365Z,99638.05
2022-09-11T12:58:40.364Z,99638.50
2022-09-11T13:01:47.685Z,99644.42
2022-09-11T13:04:52.797Z,99622.37
2022-09-11T13:08:00.654Z,99619.84
2022-09-11T13:11:06.203Z,99618.68
2022-09-11T13:14:12.956Z,99622.31
2022-09-11T13:17:18.876Z,99627.13
2022-09-11T13:20:37.012Z,99617.42
2022-09-11T13:23:42.849Z,99607.08
2022-09-11T13:26:48.546Z,99604.33
2022-09-11T13:29:54.611Z,99609.38
2022-09-11T13:33:00.375Z,99599.30
2022-09-11T13:36:06.250Z,99601.55
2022-09-11T13:39:14.524Z,99608.30
2022-09-11T13:42:23.359Z,99604.39
2022-09-11T13:45:35.125Z,99599.94
2022-09-11T13:48:41.155Z,99604.97
2022-09-11T13:51:46.894Z,99597.70
2022-09-11T13:54:58.846Z,99597.70
2022-09-11T13:58:10.562Z,99598.21
2022-09-11T14:01:26.685Z,99599.61
2022-09-11T14:04:34.141Z,99597.37
2022-09-11T14:07:40.249Z,99600.95
2022-09-11T14:10:59.687Z,99613.87
2022-09-11T14:14:12.470Z,99615.27
2022-09-11T14:17:20.308Z,99614.16
2022-09-11T14:20:33.887Z,99613.88
2022-09-11T14:23:41.425Z,99609.14
2022-09-11T14:26:51.595Z,99620.28
2022-09-11T14:29:55.848Z,99612.52
2022-09-11T14:33:01.282Z,99617.84
2022-09-11T14:36:09.988Z,99611.41
2022-09-11T14:39:14.602Z,99614.78
2022-09-11T14:42:23.286Z,99616.48
2022-09-11T14:45:38.559Z,99600.27
2022-09-11T14:48:43.936Z,99601.36
2022-09-11T14:51:51.565Z,99591.30
2022-09-11T14:54:56.941Z,99591.30
2022-09-11T14:58:02.782Z,99581.55
2022-09-11T15:01:09.585Z,99579.58
2022-09-11T15:04:14.204Z,99574.84
2022-09-11T15:07:19.560Z,99565.35
2022-09-11T15:10:27.421Z,99556.13
2022-09-11T15:13:32.538Z,99567.60
2022-09-11T15:16:38.759Z,99569.00
2022-09-11T15:19:44.863Z,99568.69
2022-09-11T15:22:50.227Z,99568.30
2022-09-11T15:25:56.140Z,99568.56
2022-09-11T15:29:03.561Z,99565.75
2022-09-11T15:32:09.026Z,99566.56
2022-09-11T15:35:16.902Z,99569.09
2022-09-11T15:38:24.723Z,99575.70
2022-09-11T15:41:31.321Z,99573.94
2022-09-11T15:44:39.718Z,99567.51
2022-09-11T15:47:38.693Z,99562.11
2022-09-11T15:50:46.361Z,99563.91
2022-09-11T15:53:52.477Z,99560.02
2022-09-11T15:56:57.947Z,99554.56
2022-09-11T16:00:02.300Z,99552.27
2022-09-11T16:03:10.192Z,99552.19
2022-09-11T16:06:15.892Z,99550.88
2022-09-11T16:09:23.679Z,99540.09
2022-09-11T16:12:28.939Z,99543.34
2022-09-11T16:15:34.836Z,99547.27
2022-09-11T16:18:40.077Z,99544.31
2022-09-11T16:21:45.447Z,99554.31
2022-09-11T16:24:51.297Z,99546.20
2022-09-11T16:27:58.734Z,99550.31
2022-09-11T16:31:09.138Z,99557.55
2022-09-11T16:34:17.724Z,99560.63
2022-09-11T16:37:22.916Z,99551.61
2022-09-11T16:40:28.787Z,99553.23
2022-09-11T16:43:35.139Z,99564.48
2022-09-11T16:46:39.977Z,99562.08
2022-09-11T16:52:51.991Z,99566.13
2022-09-11T16:56:01.757Z,99565.49
2022-09-11T16:59:07.999Z,99560.17
2022-09-11T17:02:13.584Z,99555.22
2022-09-11T17:05:23.201Z,99552.11
2022-09-11T17:08:28.790Z,99551.83
2022-09-11T17:11:36.278Z,99548.75
2022-09-11T17:14:42.681Z,99553.73
2022-09-11T17:17:51.639Z,99540.22
2022-09-11T17:20:56.638Z,99538.97
2022-09-11T17:24:01.587Z,99540.77
2022-09-11T17:27:09.628Z,99543.55
2022-09-11T17:30:14.847Z,99546.17
2022-09-11T17:33:21.041Z,99540.45
2022-09-11T17:36:28.062Z,99543.77
2022-09-11T17:39:35.687Z,99542.73
2022-09-11T17:42:42.825Z,99537.23
2022-09-11T17:45:48.637Z,99539.59
2022-09-11T17:48:54.661Z,99535.94
2022-09-11T17:52:00.362Z,99534.03
2022-09-11T17:55:05.649Z,99534.94
2022-09-11T17:58:11.147Z,99535.76
2022-09-11T18:01:18.441Z,99530.05
2022-09-11T18:04:26.721Z,99522.85
2022-09-11T18:07:33.436Z,99528.40
2022-09-11T18:10:41.024Z,99519.59
2022-09-11T18:13:49.804Z,99519.20
2022-09-11T18:16:56.273Z,99513.98
2022-09-11T18:20:03.162Z,99507.73
2022-09-11T18:23:09.927Z,99508.41
2022-09-11T18:26:16.978Z,99512.50
2022-09-11T18:29:26.837Z,99510.56
2022-09-11T18:32:33.388Z,99506.95
2022-09-11T18:35:38.890Z,99513.64
2022-09-11T18:38:44.533Z,99508.04
2022-09-11T18:41:51.493Z,99513.20
2022-09-11T18:44:57.435Z,99511.81
2022-09-11T18:48:05.545Z,99510.16
2022-09-11T18:51:13.254Z,99507.15
2022-09-11T18:54:18.075Z,99501.52
2022-09-11T18:57:23.594Z,99504.36
2022-09-11T19:00:30.630Z,99499.30
2022-09-11T19:03:38.018Z,99494.83
2022-09-11T19:06:48.144Z,99495.38
2022-09-11T19:09:55.941Z,99498.06
2022-09-11T19:13:03.312Z,99496.53
2022-09-11T19:16:12.998Z,99492.39
2022-09-11T19:19:19.853Z,99487.92
2022-09-11T19:22:27.514Z,99475.72
2022-09-11T19:25:35.181Z,99468.50
2022-09-11T19:28:42.090Z,99468.59
2022-09-11T19:31:49.059Z,99470.59
2022-09-11T19:34:55.598Z,99466.56
2022-09-11T19:38:02.798Z,99458.93
2022-09-11T19:41:08.537Z,99453.74
2022-09-11T19:44:15.120Z,99445.48
2022-09-11T19:47:20.017Z,99444.71
2022-09-11T19:50:28.101Z,99431.98
2022-09-11T19:53:34.382Z,99426.28
2022-09-11T19:56:40.600Z,99420.45
2022-09-11T19:59:46.736Z,99411.09
2022-09-11T20:02:52.709Z,99405.97
2022-09-11T20:06:00.365Z,99398.05
2022-09-11T20:12:16.229Z,99393.41
2022-09-11T20:15:23.317Z,99393.19
2022-09-11T20:18:29.516Z,99390.40
2022-09-11T20:21:37.602Z,99389.16
2022-09-11T20:24:44.097Z,99378.63
2022-09-11T20:27:49.370Z,99382.84
2022-09-11T20:30:55.793Z,99386.30
2022-09-11T20:34:01.016Z,99382.93
2022-09-11T20:37:10.045Z,99384.52
2022-09-11T20:40:14.471Z,99393.86
2022-09-11T20:43:20.557Z,99398.05
2022-09-11T20:46:28.249Z,99395.17
2022-09-11T20:49:33.860Z,99398.30
2022-09-11T20:52:40.140Z,99400.06
2022-09-11T20:55:46.262Z,99400.58
2022-09-11T20:58:52.546Z,99400.39
2022-09-11T21:01:58.053Z,99402.80
2022-09-11T21:05:03.881Z,99398.48
2022-09-11T21:08:09.773Z,99397.77
2022-09-11T21:11:18.466Z,99405.61
2022-09-11T21:14:25.007Z,99409.89
2022-09-11T21:17:30.854Z,99404.63
2022-09-11T21:20:36.773Z,99402.62
2022-09-11T21:23:42.342Z,99392.37
2022-09-11T21:26:47.768Z,99395.49
2022-09-11T21:29:52.170Z,99389.97
2022-09-11T21:32:57.737Z,99390.14
2022-09-11T21:36:06.705Z,99386.73
2022-09-11T21:39:11.752Z,99382.03
2022-09-11T21:42:17.907Z,99380.91
2022-09-11T21:45:24.419Z,99383.31
2022-09-11T21:48:33.638Z,99382.26
2022-09-11T21:51:35.682Z,99382.33
2022-09-11T21:54:41.592Z,99384.33
2022-09-11T21:57:47.127Z,99377.34
2022-09-11T22:00:54.805Z,99369.23
2022-09-11T22:04:01.558Z,99363.64
2022-09-11T22:07:08.383Z,99362.44
2022-09-11T22:10:14.628Z,99359.13
2022-09-11T22:13:20.014Z,99349.70
2022-09-11T22:16:27.258Z,99343.01
2022-09-11T22:19:25.756Z,99350.10
2022-09-11T22:22:18.574Z,99346.06
2022-09-11T22:25:23.978Z,99348.93
2022-09-11T22:28:29.674Z,99349.27
2022-09-11T22:31:30.340Z,99352.11
2022-09-11T22:34:36.182Z,99342.48
2022-09-11T22:37:42.170Z,99340.48
2022-09-11T22:40:47.895Z,99337.06
2022-09-11T22:43:55.767Z,99331.82
2022-09-11T22:47:01.781Z,99323.82
2022-09-11T22:50:08.046Z,99321.67
2022-09-11T22:53:14.052Z,99314.41
2022-09-11T22:56:20.840Z,99313.64
2022-09-11T22:59:25.865Z,99309.87
2022-09-11T23:02:31.580Z,99305.25
2022-09-11T23:05:54.200Z,99305.91
2022-09-11T23:08:59.575Z,99305.33
2022-09-11T23:12:05.263Z,99295.33
2022-09-11T23:15:04.635Z,99301.83
2022-09-11T23:18:10.447Z,99305.17
2022-09-11T23:21:15.191Z,99309.09
2022-09-11T23:24:21.533Z,99307.02
2022-09-11T23:27:27.447Z,99309.31
2022-09-11T23:30:32.590Z,99306.69
2022-09-11T23:33:32.454Z,99314.26
2022-09-11T23:36:38.251Z,99318.07
2022-09-11T23:39:44.849Z,99315.98
2022-09-11T23:42:50.803Z,99315.27
2022-09-11T23:45:56.960Z,99313.72
2022-09-11T23:49:03.554Z,99311.91
2022-09-11T23:52:10.045Z,99314.86
2022-09-11T23:55:17.553Z,99315.20
2022-09-11T23:58:23.903Z,99320.62
